createdAt,value
2022-08-11T00:02:15.383Z,24.07
2022-08-11T00:07:45.351Z,24.08
2022-08-11T00:13:09.158Z,24.07
2022-08-11T00:18:41.332Z,23.69
2022-08-11T00:24:06.269Z,23.06
2022-08-11T00:29:29.712Z,22.72
2022-08-11T00:34:53.737Z,22.53
2022-08-11T00:40:45.263Z,21.63
2022-08-11T00:46:20.717Z,22.02
2022-08-11T00:52:08.868Z,21.49
2022-08-11T00:58:05.304Z,21.61
2022-08-11T01:03:50.047Z,21.68
2022-08-11T01:09:34.257Z,22.21
2022-08-11T01:15:30.965Z,22.45
2022-08-11T01:21:29.042Z,22.58
2022-08-11T01:27:33.629Z,22.39
2022-08-11T01:33:36.095Z,21.21
2022-08-11T01:39:51.196Z,20.94
2022-08-11T01:45:31.404Z,20.05
2022-08-11T01:51:09.711Z,20.59
2022-08-11T01:56:50.838Z,21.36
2022-08-11T02:02:44.089Z,21.61
2022-08-11T02:08:16.758Z,21.93
2022-08-11T02:13:48.860Z,22.62
2022-08-11T02:19:47.496Z,22.74
2022-08-11T02:25:21.646Z,23.00
2022-08-11T02:52:15.723Z,22.96
2022-08-11T02:57:44.774Z,22.95
2022-08-11T03:03:20.699Z,22.93
2022-08-11T03:08:56.099Z,22.02
2022-08-11T03:14:43.850Z,21.03
2022-08-11T03:20:33.478Z,20.40
2022-08-11T03:26:11.683Z,20.49
2022-08-11T03:31:38.805Z,19.94
2022-08-11T03:37:43.970Z,20.83
2022-08-11T03:43:25.820Z,21.54
2022-08-11T03:49:00.667Z,22.06
2022-08-11T03:54:34.245Z,21.65
2022-08-11T04:00:20.865Z,21.87
2022-08-11T04:06:19.785Z,21.77
2022-08-11T04:12:04.297Z,21.43
2022-08-11T04:18:01.249Z,21.08
2022-08-11T04:24:35.148Z,21.68
2022-08-11T04:30:05.147Z,21.16
2022-08-11T04:35:48.611Z,21.58
2022-08-11T05:02:31.839Z,20.95
2022-08-11T05:08:37.124Z,20.43
2022-08-11T05:14:45.616Z,21.06
2022-08-11T05:20:29.592Z,20.78
2022-08-11T05:26:47.853Z,21.51
2022-08-11T05:32:20.256Z,22.02
2022-08-11T05:38:02.373Z,22.16
2022-08-11T05:44:20.282Z,21.76
2022-08-11T05:49:48.275Z,22.08
2022-08-11T05:55:29.759Z,22.26
2022-08-11T06:00:54.008Z,22.40
2022-08-11T06:06:18.349Z,22.39
2022-08-11T06:11:44.975Z,22.06
2022-08-11T06:17:08.672Z,22.60
2022-08-11T06:22:33.731Z,22.52
2022-08-11T06:27:57.904Z,22.22
2022-08-11T06:33:32.086Z,22.63
2022-08-11T06:39:08.448Z,22.84
2022-08-11T06:44:40.823Z,22.87
2022-08-11T06:50:25.001Z,23.02
2022-08-11T06:56:08.731Z,22.98
2022-08-11T07:01:46.567Z,23.25
2022-08-11T07:08:33.694Z,23.33
2022-08-11T07:14:10.934Z,23.55
2022-08-11T07:19:51.814Z,23.72
2022-08-11T07:31:07.449Z,23.97
2022-08-11T07:36:32.573Z,24.08
2022-08-11T07:41:58.427Z,24.17
2022-08-11T07:47:41.648Z,24.28
2022-08-11T07:53:05.440Z,24.39
2022-08-11T07:58:52.280Z,24.49
2022-08-11T08:04:37.295Z,24.60
2022-08-11T08:10:18.845Z,24.67
2022-08-11T08:16:00.034Z,24.63
2022-08-11T08:21:24.370Z,24.90
2022-08-11T08:27:03.059Z,24.99
2022-08-11T08:32:27.776Z,25.07
2022-08-11T08:37:52.804Z,25.17
2022-08-11T08:43:18.468Z,25.26
2022-08-11T08:48:44.506Z,25.39
2022-08-11T08:54:11.969Z,25.48
2022-08-11T08:59:48.641Z,25.63
2022-08-11T09:05:13.244Z,25.76
2022-08-11T09:10:39.129Z,25.82
2022-08-11T09:16:02.808Z,25.85
2022-08-11T09:21:48.206Z,25.86
2022-08-11T09:27:11.591Z,25.89
2022-08-11T09:32:35.278Z,26.01
2022-08-11T09:38:17.026Z,26.13
2022-08-11T09:44:07.563Z,26.15
2022-08-11T09:49:31.220Z,26.13
2022-08-11T09:54:55.858Z,26.11
2022-08-11T10:00:21.569Z,26.17
2022-08-11T10:06:08.226Z,26.25
2022-08-11T10:11:31.649Z,26.34
2022-08-11T10:16:56.899Z,26.43
2022-08-11T10:22:37.892Z,26.56
2022-08-11T10:28:28.982Z,26.70
2022-08-11T10:34:01.566Z,26.60
2022-08-11T10:39:26.897Z,27.05
2022-08-11T10:44:54.038Z,27.14
2022-08-11T10:50:36.108Z,27.29
2022-08-11T10:56:18.162Z,27.36
2022-08-11T11:01:44.452Z,27.40
2022-08-11T11:07:15.978Z,27.54
2022-08-11T11:13:00.350Z,27.66
2022-08-11T11:18:25.863Z,27.84
2022-08-11T11:23:57.812Z,28.02
2022-08-11T11:29:45.011Z,28.23
2022-08-11T11:35:27.735Z,28.33
2022-08-11T11:41:06.323Z,28.48
2022-08-11T11:46:31.588Z,28.59
2022-08-11T11:52:02.766Z,28.77
2022-08-11T11:57:59.133Z,28.93
2022-08-11T12:03:23.081Z,29.06
2022-08-11T12:08:50.253Z,28.76
2022-08-11T12:14:18.085Z,29.04
2022-08-11T12:19:41.305Z,29.07
2022-08-11T12:25:29.475Z,29.07
2022-08-11T12:30:54.709Z,29.14
2022-08-11T12:36:18.643Z,29.23
2022-08-11T12:42:09.717Z,29.27
2022-08-11T12:48:12.285Z,29.43
2022-08-11T12:53:43.854Z,29.61
2022-08-11T12:59:26.329Z,29.79
2022-08-11T13:04:56.048Z,30.02
2022-08-11T13:10:40.997Z,30.24
